sensor_id;sensor_type;location;lat;lon;timestamp;P1;durP1;ratioP1;P2;durP2;ratioP2
53646;SDS011;39550;52.230;5.194;2022-11-15T00:01:09;19.90;;;13.23;;
53646;SDS011;39550;52.230;5.194;2022-11-15T00:03:38;21.05;;;13.60;;
53646;SDS011;39550;52.230;5.194;2022-11-15T00:06:04;19.65;;;13.45;;
53646;SDS011;39550;52.230;5.194;2022-11-15T00:08:30;20.13;;;14.30;;
53646;SDS011;39550;52.230;5.194;2022-11-15T00:10:57;18.25;;;13.45;;
53646;SDS011;39550;52.230;5.194;2022-11-15T00:13:23;18.17;;;12.90;;
53646;SDS011;39550;52.230;5.194;2022-11-15T00:15:49;18.63;;;13.30;;
53646;SDS011;39550;52.230;5.194;2022-11-15T00:18:14;20.15;;;14.23;;
53646;SDS011;39550;52.230;5.194;2022-11-15T00:20:41;20.00;;;13.70;;
53646;SDS011;39550;52.230;5.194;2022-11-15T00:23:06;19.52;;;13.55;;
53646;SDS011;39550;52.230;5.194;2022-11-15T00:25:32;21.65;;;14.07;;
53646;SDS011;39550;52.230;5.194;2022-11-15T00:27:57;19.15;;;12.27;;
53646;SDS011;39550;52.230;5.194;2022-11-15T00:30:24;18.67;;;12.70;;
53646;SDS011;39550;52.230;5.194;2022-11-15T00:32:49;17.80;;;12.55;;
53646;SDS011;39550;52.230;5.194;2022-11-15T00:35:15;22.27;;;14.02;;
53646;SDS011;39550;52.230;5.194;2022-11-15T00:37:40;19.95;;;13.60;;
53646;SDS011;39550;52.230;5.194;2022-11-15T00:40:06;22.30;;;14.20;;
53646;SDS011;39550;52.230;5.194;2022-11-15T00:42:31;21.90;;;13.20;;
53646;SDS011;39550;52.230;5.194;2022-11-15T00:44:57;21.40;;;14.15;;
53646;SDS011;39550;52.230;5.194;2022-11-15T00:47:22;21.45;;;13.43;;
53646;SDS011;39550;52.230;5.194;2022-11-15T00:49:47;18.58;;;13.63;;
53646;SDS011;39550;52.230;5.194;2022-11-15T00:52:13;18.73;;;13.73;;
53646;SDS011;39550;52.230;5.194;2022-11-15T00:54:38;23.13;;;13.77;;
53646;SDS011;39550;52.230;5.194;2022-11-15T00:57:03;21.13;;;14.77;;
53646;SDS011;39550;52.230;5.194;2022-11-15T00:59:28;20.70;;;13.77;;
53646;SDS011;39550;52.230;5.194;2022-11-15T01:01:54;19.67;;;13.18;;
53646;SDS011;39550;52.230;5.194;2022-11-15T01:04:19;24.35;;;14.15;;
53646;SDS011;39550;52.230;5.194;2022-11-15T01:06:44;19.80;;;13.02;;
53646;SDS011;39550;52.230;5.194;2022-11-15T01:09:10;21.40;;;14.38;;
53646;SDS011;39550;52.230;5.194;2022-11-15T01:11:35;20.25;;;13.77;;
53646;SDS011;39550;52.230;5.194;2022-11-15T01:14:00;22.15;;;13.52;;
53646;SDS011;39550;52.230;5.194;2022-11-15T01:16:26;21.20;;;13.93;;
53646;SDS011;39550;52.230;5.194;2022-11-15T01:18:51;22.05;;;13.18;;
53646;SDS011;39550;52.230;5.194;2022-11-15T01:21:17;26.33;;;14.32;;
53646;SDS011;39550;52.230;5.194;2022-11-15T01:23:43;22.70;;;14.57;;
53646;SDS011;39550;52.230;5.194;2022-11-15T01:26:10;20.77;;;13.70;;
53646;SDS011;39550;52.230;5.194;2022-11-15T01:28:38;24.30;;;14.25;;
53646;SDS011;39550;52.230;5.194;2022-11-15T01:31:26;23.08;;;13.60;;
53646;SDS011;39550;52.230;5.194;2022-11-15T01:33:50;23.38;;;14.52;;
53646;SDS011;39550;52.230;5.194;2022-11-15T01:36:17;18.90;;;13.55;;
53646;SDS011;39550;52.230;5.194;2022-11-15T01:38:44;25.23;;;15.00;;
53646;SDS011;39550;52.230;5.194;2022-11-15T01:41:16;22.35;;;13.77;;
53646;SDS011;39550;52.230;5.194;2022-11-15T01:43:43;21.33;;;13.70;;
53646;SDS011;39550;52.230;5.194;2022-11-15T01:48:34;22.92;;;14.85;;
53646;SDS011;39550;52.230;5.194;2022-11-15T01:51:01;23.58;;;14.75;;
53646;SDS011;39550;52.230;5.194;2022-11-15T01:53:33;22.90;;;14.18;;
53646;SDS011;39550;52.230;5.194;2022-11-15T01:56:02;22.75;;;14.45;;
53646;SDS011;39550;52.230;5.194;2022-11-15T02:00:56;20.50;;;13.23;;
53646;SDS011;39550;52.230;5.194;2022-11-15T02:03:21;23.33;;;14.25;;
53646;SDS011;39550;52.230;5.194;2022-11-15T02:05:50;23.48;;;14.13;;
53646;SDS011;39550;52.230;5.194;2022-11-15T02:08:16;21.95;;;14.68;;
53646;SDS011;39550;52.230;5.194;2022-11-15T02:10:45;22.67;;;14.52;;
53646;SDS011;39550;52.230;5.194;2022-11-15T02:13:16;23.85;;;15.15;;
53646;SDS011;39550;52.230;5.194;2022-11-15T02:15:56;22.00;;;13.75;;
53646;SDS011;39550;52.230;5.194;2022-11-15T02:18:35;21.75;;;13.70;;
53646;SDS011;39550;52.230;5.194;2022-11-15T02:21:17;23.42;;;14.23;;
53646;SDS011;39550;52.230;5.194;2022-11-15T02:27:08;21.27;;;14.20;;
53646;SDS011;39550;52.230;5.194;2022-11-15T02:37:47;21.70;;;14.35;;
53646;SDS011;39550;52.230;5.194;2022-11-15T02:40:31;24.95;;;15.23;;
53646;SDS011;39550;52.230;5.194;2022-11-15T02:43:07;21.95;;;14.18;;
53646;SDS011;39550;52.230;5.194;2022-11-15T02:46:17;25.07;;;13.97;;
53646;SDS011;39550;52.230;5.194;2022-11-15T02:48:47;23.15;;;14.27;;
53646;SDS011;39550;52.230;5.194;2022-11-15T02:51:13;24.13;;;14.45;;
53646;SDS011;39550;52.230;5.194;2022-11-15T02:53:38;24.75;;;14.35;;
53646;SDS011;39550;52.230;5.194;2022-11-15T02:56:04;23.38;;;14.98;;
53646;SDS011;39550;52.230;5.194;2022-11-15T03:01:45;22.77;;;14.00;;
53646;SDS011;39550;52.230;5.194;2022-11-15T03:04:21;23.70;;;14.95;;
53646;SDS011;39550;52.230;5.194;2022-11-15T03:07:11;22.77;;;14.60;;
53646;SDS011;39550;52.230;5.194;2022-11-15T03:09:55;21.25;;;13.93;;
53646;SDS011;39550;52.230;5.194;2022-11-15T03:12:28;22.58;;;14.70;;
53646;SDS011;39550;52.230;5.194;2022-11-15T03:15:01;23.10;;;14.50;;
53646;SDS011;39550;52.230;5.194;2022-11-15T03:20:29;20.42;;;13.50;;
53646;SDS011;39550;52.230;5.194;2022-11-15T03:22:56;24.95;;;15.15;;
53646;SDS011;39550;52.230;5.194;2022-11-15T03:25:28;23.67;;;13.80;;
53646;SDS011;39550;52.230;5.194;2022-11-15T03:27:57;23.55;;;14.07;;
53646;SDS011;39550;52.230;5.194;2022-11-15T03:30:26;24.95;;;15.95;;
53646;SDS011;39550;52.230;5.194;2022-11-15T03:32:54;22.20;;;14.20;;
53646;SDS011;39550;52.230;5.194;2022-11-15T03:35:23;21.77;;;13.85;;
53646;SDS011;39550;52.230;5.194;2022-11-15T03:40:56;24.30;;;15.32;;
53646;SDS011;39550;52.230;5.194;2022-11-15T03:43:36;22.48;;;13.07;;
53646;SDS011;39550;52.230;5.194;2022-11-15T03:46:28;24.40;;;15.23;;
53646;SDS011;39550;52.230;5.194;2022-11-15T03:49:13;24.17;;;14.40;;
53646;SDS011;39550;52.230;5.194;2022-11-15T03:51:46;21.08;;;13.90;;
53646;SDS011;39550;52.230;5.194;2022-11-15T03:54:12;24.38;;;14.25;;
53646;SDS011;39550;52.230;5.194;2022-11-15T03:56:38;23.38;;;14.63;;
53646;SDS011;39550;52.230;5.194;2022-11-15T03:59:03;26.73;;;14.15;;
53646;SDS011;39550;52.230;5.194;2022-11-15T04:01:28;22.55;;;14.60;;
53646;SDS011;39550;52.230;5.194;2022-11-15T04:03:54;24.00;;;15.25;;
53646;SDS011;39550;52.230;5.194;2022-11-15T04:06:19;22.83;;;14.73;;
53646;SDS011;39550;52.230;5.194;2022-11-15T04:08:45;22.20;;;14.23;;
53646;SDS011;39550;52.230;5.194;2022-11-15T04:11:10;20.48;;;13.13;;
53646;SDS011;39550;52.230;5.194;2022-11-15T04:13:35;24.17;;;15.02;;
53646;SDS011;39550;52.230;5.194;2022-11-15T04:16:00;23.05;;;15.02;;
53646;SDS011;39550;52.230;5.194;2022-11-15T04:18:26;21.60;;;14.93;;
53646;SDS011;39550;52.230;5.194;2022-11-15T04:20:51;20.25;;;13.68;;
53646;SDS011;39550;52.230;5.194;2022-11-15T04:23:35;23.25;;;12.80;;
53646;SDS011;39550;52.230;5.194;2022-11-15T04:26:20;21.95;;;13.38;;
53646;SDS011;39550;52.230;5.194;2022-11-15T04:28:47;18.42;;;12.57;;
53646;SDS011;39550;52.230;5.194;2022-11-15T04:31:31;23.67;;;13.68;;
53646;SDS011;39550;52.230;5.194;2022-11-15T04:33:57;19.55;;;13.25;;
53646;SDS011;39550;52.230;5.194;2022-11-15T04:36:22;20.55;;;13.75;;
53646;SDS011;39550;52.230;5.194;2022-11-15T04:39:06;22.23;;;15.10;;
53646;SDS011;39550;52.230;5.194;2022-11-15T04:41:32;20.67;;;13.63;;
53646;SDS011;39550;52.230;5.194;2022-11-15T04:43:57;18.50;;;12.23;;
53646;SDS011;39550;52.230;5.194;2022-11-15T04:46:23;20.55;;;13.95;;
53646;SDS011;39550;52.230;5.194;2022-11-15T04:48:49;22.58;;;13.93;;
53646;SDS011;39550;52.230;5.194;2022-11-15T04:51:15;25.33;;;14.45;;
53646;SDS011;39550;52.230;5.194;2022-11-15T04:53:41;18.73;;;12.48;;
53646;SDS011;39550;52.230;5.194;2022-11-15T04:56:06;20.05;;;14.13;;
53646;SDS011;39550;52.230;5.194;2022-11-15T04:58:32;17.60;;;12.75;;
53646;SDS011;39550;52.230;5.194;2022-11-15T05:00:57;19.25;;;13.48;;
53646;SDS011;39550;52.230;5.194;2022-11-15T05:03:22;21.70;;;13.30;;
53646;SDS011;39550;52.230;5.194;2022-11-15T05:06:06;19.90;;;13.85;;
53646;SDS011;39550;52.230;5.194;2022-11-15T05:08:32;20.95;;;13.27;;
53646;SDS011;39550;52.230;5.194;2022-11-15T05:10:57;19.30;;;12.40;;
53646;SDS011;39550;52.230;5.194;2022-11-15T05:13:23;18.00;;;11.93;;
53646;SDS011;39550;52.230;5.194;2022-11-15T05:15:48;18.75;;;12.50;;
53646;SDS011;39550;52.230;5.194;2022-11-15T05:18:13;21.77;;;12.80;;
53646;SDS011;39550;52.230;5.194;2022-11-15T05:20:38;19.13;;;12.82;;
53646;SDS011;39550;52.230;5.194;2022-11-15T05:23:04;19.17;;;11.90;;
53646;SDS011;39550;52.230;5.194;2022-11-15T05:25:29;18.83;;;12.98;;
53646;SDS011;39550;52.230;5.194;2022-11-15T05:27:57;17.77;;;12.00;;
53646;SDS011;39550;52.230;5.194;2022-11-15T05:30:22;17.88;;;12.52;;
53646;SDS011;39550;52.230;5.194;2022-11-15T05:32:48;17.58;;;12.73;;
53646;SDS011;39550;52.230;5.194;2022-11-15T05:35:20;18.13;;;12.40;;
53646;SDS011;39550;52.230;5.194;2022-11-15T05:37:54;18.50;;;13.02;;
53646;SDS011;39550;52.230;5.194;2022-11-15T05:40:19;18.70;;;11.55;;
53646;SDS011;39550;52.230;5.194;2022-11-15T05:42:44;18.60;;;12.07;;
53646;SDS011;39550;52.230;5.194;2022-11-15T05:45:10;18.88;;;12.88;;
53646;SDS011;39550;52.230;5.194;2022-11-15T05:47:36;16.52;;;12.15;;
53646;SDS011;39550;52.230;5.194;2022-11-15T05:50:04;20.85;;;13.02;;
53646;SDS011;39550;52.230;5.194;2022-11-15T05:52:30;21.80;;;11.88;;
53646;SDS011;39550;52.230;5.194;2022-11-15T05:54:59;17.48;;;12.45;;
53646;SDS011;39550;52.230;5.194;2022-11-15T05:57:25;16.25;;;11.20;;
53646;SDS011;39550;52.230;5.194;2022-11-15T05:59:50;19.35;;;12.60;;
53646;SDS011;39550;52.230;5.194;2022-11-15T06:02:16;19.95;;;12.50;;
53646;SDS011;39550;52.230;5.194;2022-11-15T06:04:41;15.98;;;12.00;;
53646;SDS011;39550;52.230;5.194;2022-11-15T06:07:07;18.30;;;11.93;;
53646;SDS011;39550;52.230;5.194;2022-11-15T06:09:32;15.10;;;11.15;;
53646;SDS011;39550;52.230;5.194;2022-11-15T06:11:58;15.52;;;11.43;;
53646;SDS011;39550;52.230;5.194;2022-11-15T06:14:26;17.08;;;11.00;;
53646;SDS011;39550;52.230;5.194;2022-11-15T06:16:51;16.45;;;10.93;;
53646;SDS011;39550;52.230;5.194;2022-11-15T06:19:17;16.80;;;12.02;;
53646;SDS011;39550;52.230;5.194;2022-11-15T06:21:42;15.52;;;11.20;;
53646;SDS011;39550;52.230;5.194;2022-11-15T06:24:08;15.50;;;10.80;;
53646;SDS011;39550;52.230;5.194;2022-11-15T06:26:33;17.35;;;11.02;;
53646;SDS011;39550;52.230;5.194;2022-11-15T06:28:58;13.60;;;10.48;;
53646;SDS011;39550;52.230;5.194;2022-11-15T06:31:23;17.95;;;11.88;;
53646;SDS011;39550;52.230;5.194;2022-11-15T06:33:49;16.83;;;10.82;;
53646;SDS011;39550;52.230;5.194;2022-11-15T06:36:14;19.33;;;12.63;;
53646;SDS011;39550;52.230;5.194;2022-11-15T06:38:42;16.05;;;11.30;;
53646;SDS011;39550;52.230;5.194;2022-11-15T06:41:10;15.73;;;11.43;;
53646;SDS011;39550;52.230;5.194;2022-11-15T06:43:37;15.10;;;11.32;;
53646;SDS011;39550;52.230;5.194;2022-11-15T06:46:03;15.63;;;11.10;;
53646;SDS011;39550;52.230;5.194;2022-11-15T06:48:30;14.75;;;10.38;;
53646;SDS011;39550;52.230;5.194;2022-11-15T06:50:57;16.02;;;11.45;;
53646;SDS011;39550;52.230;5.194;2022-11-15T06:53:24;14.02;;;10.35;;
53646;SDS011;39550;52.230;5.194;2022-11-15T06:55:49;15.38;;;11.25;;
53646;SDS011;39550;52.230;5.194;2022-11-15T06:58:15;16.67;;;11.27;;
53646;SDS011;39550;52.230;5.194;2022-11-15T07:00:41;14.57;;;10.25;;
53646;SDS011;39550;52.230;5.194;2022-11-15T07:03:06;14.77;;;10.32;;
53646;SDS011;39550;52.230;5.194;2022-11-15T07:05:32;15.43;;;11.02;;
53646;SDS011;39550;52.230;5.194;2022-11-15T07:07:57;18.17;;;12.10;;
53646;SDS011;39550;52.230;5.194;2022-11-15T07:10:24;16.83;;;11.18;;
53646;SDS011;39550;52.230;5.194;2022-11-15T07:12:53;17.58;;;12.18;;
53646;SDS011;39550;52.230;5.194;2022-11-15T07:15:20;17.55;;;11.40;;
53646;SDS011;39550;52.230;5.194;2022-11-15T07:17:47;15.40;;;11.05;;
53646;SDS011;39550;52.230;5.194;2022-11-15T07:20:13;24.02;;;16.33;;
53646;SDS011;39550;52.230;5.194;2022-11-15T07:22:39;24.75;;;17.05;;
53646;SDS011;39550;52.230;5.194;2022-11-15T07:25:05;20.92;;;14.13;;
53646;SDS011;39550;52.230;5.194;2022-11-15T07:27:30;23.33;;;14.52;;
53646;SDS011;39550;52.230;5.194;2022-11-15T07:29:56;17.83;;;12.60;;
53646;SDS011;39550;52.230;5.194;2022-11-15T07:32:21;16.95;;;12.02;;
53646;SDS011;39550;52.230;5.194;2022-11-15T07:34:46;18.38;;;12.20;;
53646;SDS011;39550;52.230;5.194;2022-11-15T07:37:12;17.05;;;12.63;;
53646;SDS011;39550;52.230;5.194;2022-11-15T07:39:37;17.73;;;11.63;;
53646;SDS011;39550;52.230;5.194;2022-11-15T07:42:03;18.48;;;11.77;;
53646;SDS011;39550;52.230;5.194;2022-11-15T07:44:47;16.52;;;11.20;;
53646;SDS011;39550;52.230;5.194;2022-11-15T07:47:12;17.08;;;12.18;;
53646;SDS011;39550;52.230;5.194;2022-11-15T07:49:37;19.20;;;12.38;;
53646;SDS011;39550;52.230;5.194;2022-11-15T07:52:02;15.57;;;11.60;;
53646;SDS011;39550;52.230;5.194;2022-11-15T07:54:28;14.95;;;11.43;;
53646;SDS011;39550;52.230;5.194;2022-11-15T07:56:53;16.73;;;11.90;;
53646;SDS011;39550;52.230;5.194;2022-11-15T07:59:18;15.80;;;10.85;;
53646;SDS011;39550;52.230;5.194;2022-11-15T08:01:44;16.55;;;11.52;;
53646;SDS011;39550;52.230;5.194;2022-11-15T08:04:10;16.55;;;11.40;;
53646;SDS011;39550;52.230;5.194;2022-11-15T08:06:36;16.08;;;10.82;;
53646;SDS011;39550;52.230;5.194;2022-11-15T08:09:01;15.30;;;10.98;;
53646;SDS011;39550;52.230;5.194;2022-11-15T08:11:27;15.93;;;11.75;;
53646;SDS011;39550;52.230;5.194;2022-11-15T08:13:52;15.07;;;11.10;;
53646;SDS011;39550;52.230;5.194;2022-11-15T08:16:17;14.60;;;10.60;;
53646;SDS011;39550;52.230;5.194;2022-11-15T08:18:42;16.52;;;11.15;;
53646;SDS011;39550;52.230;5.194;2022-11-15T08:21:08;13.18;;;10.13;;
53646;SDS011;39550;52.230;5.194;2022-11-15T08:23:34;16.35;;;10.63;;
53646;SDS011;39550;52.230;5.194;2022-11-15T08:26:01;15.63;;;10.68;;
53646;SDS011;39550;52.230;5.194;2022-11-15T08:28:28;15.63;;;10.38;;
53646;SDS011;39550;52.230;5.194;2022-11-15T08:30:54;14.15;;;10.00;;
53646;SDS011;39550;52.230;5.194;2022-11-15T08:33:19;14.73;;;10.63;;
53646;SDS011;39550;52.230;5.194;2022-11-15T08:35:45;14.50;;;9.82;;
53646;SDS011;39550;52.230;5.194;2022-11-15T08:38:10;13.32;;;9.65;;
53646;SDS011;39550;52.230;5.194;2022-11-15T08:40:35;14.27;;;10.02;;
53646;SDS011;39550;52.230;5.194;2022-11-15T08:43:01;14.23;;;10.30;;
53646;SDS011;39550;52.230;5.194;2022-11-15T08:45:27;12.98;;;9.57;;
53646;SDS011;39550;52.230;5.194;2022-11-15T08:47:53;12.02;;;9.00;;
53646;SDS011;39550;52.230;5.194;2022-11-15T08:50:19;13.73;;;9.63;;
53646;SDS011;39550;52.230;5.194;2022-11-15T08:52:44;17.27;;;10.05;;
53646;SDS011;39550;52.230;5.194;2022-11-15T08:55:10;15.40;;;10.00;;
53646;SDS011;39550;52.230;5.194;2022-11-15T08:57:35;13.18;;;9.23;;
53646;SDS011;39550;52.230;5.194;2022-11-15T09:00:00;13.40;;;9.07;;
53646;SDS011;39550;52.230;5.194;2022-11-15T09:02:26;13.60;;;9.65;;
53646;SDS011;39550;52.230;5.194;2022-11-15T09:04:51;13.95;;;9.13;;
53646;SDS011;39550;52.230;5.194;2022-11-15T09:07:16;12.50;;;8.65;;
53646;SDS011;39550;52.230;5.194;2022-11-15T09:09:42;13.25;;;9.07;;
53646;SDS011;39550;52.230;5.194;2022-11-15T09:12:07;13.20;;;9.05;;
53646;SDS011;39550;52.230;5.194;2022-11-15T09:14:33;12.05;;;8.38;;
53646;SDS011;39550;52.230;5.194;2022-11-15T09:16:59;11.70;;;8.75;;
53646;SDS011;39550;52.230;5.194;2022-11-15T09:19:24;13.43;;;8.35;;
53646;SDS011;39550;52.230;5.194;2022-11-15T09:21:49;11.85;;;8.68;;
53646;SDS011;39550;52.230;5.194;2022-11-15T09:24:15;11.60;;;8.75;;
53646;SDS011;39550;52.230;5.194;2022-11-15T09:26:40;12.45;;;8.35;;
53646;SDS011;39550;52.230;5.194;2022-11-15T09:29:06;12.20;;;8.52;;
53646;SDS011;39550;52.230;5.194;2022-11-15T09:31:32;11.82;;;8.45;;
53646;SDS011;39550;52.230;5.194;2022-11-15T09:33:57;11.60;;;8.68;;
53646;SDS011;39550;52.230;5.194;2022-11-15T09:36:23;12.95;;;8.73;;
53646;SDS011;39550;52.230;5.194;2022-11-15T09:38:48;12.45;;;8.15;;
53646;SDS011;39550;52.230;5.194;2022-11-15T09:46:44;13.90;;;8.57;;
53646;SDS011;39550;52.230;5.194;2022-11-15T09:49:20;11.15;;;7.55;;
53646;SDS011;39550;52.230;5.194;2022-11-15T09:51:47;10.75;;;7.60;;
53646;SDS011;39550;52.230;5.194;2022-11-15T09:57:10;12.30;;;7.90;;
53646;SDS011;39550;52.230;5.194;2022-11-15T09:59:39;10.75;;;7.90;;
53646;SDS011;39550;52.230;5.194;2022-11-15T10:05:16;11.77;;;7.32;;
53646;SDS011;39550;52.230;5.194;2022-11-15T10:13:02;12.15;;;7.70;;
53646;SDS011;39550;52.230;5.194;2022-11-15T10:15:28;11.48;;;7.03;;
53646;SDS011;39550;52.230;5.194;2022-11-15T10:23:23;10.20;;;6.45;;
53646;SDS011;39550;52.230;5.194;2022-11-15T10:25:58;11.25;;;6.55;;
53646;SDS011;39550;52.230;5.194;2022-11-15T10:28:28;10.95;;;7.18;;
53646;SDS011;39550;52.230;5.194;2022-11-15T10:30:56;11.43;;;6.90;;
53646;SDS011;39550;52.230;5.194;2022-11-15T10:33:38;8.82;;;6.20;;
53646;SDS011;39550;52.230;5.194;2022-11-15T10:41:28;10.95;;;6.93;;
53646;SDS011;39550;52.230;5.194;2022-11-15T10:46:32;8.05;;;5.63;;
53646;SDS011;39550;52.230;5.194;2022-11-15T10:49:19;8.35;;;6.03;;
53646;SDS011;39550;52.230;5.194;2022-11-15T10:51:53;10.65;;;6.40;;
53646;SDS011;39550;52.230;5.194;2022-11-15T10:57:05;8.77;;;6.38;;
53646;SDS011;39550;52.230;5.194;2022-11-15T10:59:36;10.93;;;6.38;;
53646;SDS011;39550;52.230;5.194;2022-11-15T11:02:02;7.95;;;5.28;;
53646;SDS011;39550;52.230;5.194;2022-11-15T11:04:52;11.30;;;5.78;;
53646;SDS011;39550;52.230;5.194;2022-11-15T11:07:21;7.20;;;5.43;;
53646;SDS011;39550;52.230;5.194;2022-11-15T11:09:56;8.07;;;5.80;;
53646;SDS011;39550;52.230;5.194;2022-11-15T11:12:42;9.05;;;6.05;;
53646;SDS011;39550;52.230;5.194;2022-11-15T11:15:11;7.18;;;5.45;;
53646;SDS011;39550;52.230;5.194;2022-11-15T11:17:49;9.90;;;6.40;;
53646;SDS011;39550;52.230;5.194;2022-11-15T11:20:25;7.97;;;5.75;;
53646;SDS011;39550;52.230;5.194;2022-11-15T11:25:51;7.97;;;5.10;;
53646;SDS011;39550;52.230;5.194;2022-11-15T11:34:00;7.65;;;4.75;;
53646;SDS011;39550;52.230;5.194;2022-11-15T11:37:03;8.05;;;5.40;;
53646;SDS011;39550;52.230;5.194;2022-11-15T11:42:54;7.68;;;4.70;;
53646;SDS011;39550;52.230;5.194;2022-11-15T11:48:08;7.10;;;4.63;;
53646;SDS011;39550;52.230;5.194;2022-11-15T11:50:38;8.60;;;4.80;;
53646;SDS011;39550;52.230;5.194;2022-11-15T11:53:17;8.90;;;5.15;;
53646;SDS011;39550;52.230;5.194;2022-11-15T11:55:52;6.60;;;4.13;;
53646;SDS011;39550;52.230;5.194;2022-11-15T11:58:34;6.87;;;4.10;;
53646;SDS011;39550;52.230;5.194;2022-11-15T12:01:14;8.73;;;4.65;;
53646;SDS011;39550;52.230;5.194;2022-11-15T12:06:48;6.53;;;4.65;;
53646;SDS011;39550;52.230;5.194;2022-11-15T12:09:35;8.00;;;4.05;;
53646;SDS011;39550;52.230;5.194;2022-11-15T12:12:15;6.30;;;4.10;;
53646;SDS011;39550;52.230;5.194;2022-11-15T12:14:49;6.10;;;3.85;;
53646;SDS011;39550;52.230;5.194;2022-11-15T12:17:20;7.22;;;3.92;;
53646;SDS011;39550;52.230;5.194;2022-11-15T12:19:48;8.00;;;4.25;;
53646;SDS011;39550;52.230;5.194;2022-11-15T12:25:07;6.05;;;3.60;;
53646;SDS011;39550;52.230;5.194;2022-11-15T12:30:20;10.10;;;3.85;;
53646;SDS011;39550;52.230;5.194;2022-11-15T12:35:44;9.73;;;3.80;;
53646;SDS011;39550;52.230;5.194;2022-11-15T12:38:51;7.47;;;3.53;;
53646;SDS011;39550;52.230;5.194;2022-11-15T12:41:15;5.75;;;3.38;;
53646;SDS011;39550;52.230;5.194;2022-11-15T12:43:42;6.22;;;3.45;;
53646;SDS011;39550;52.230;5.194;2022-11-15T12:48:47;8.80;;;3.40;;
53646;SDS011;39550;52.230;5.194;2022-11-15T12:51:21;5.90;;;3.05;;
53646;SDS011;39550;52.230;5.194;2022-11-15T13:17:40;5.47;;;2.50;;
53646;SDS011;39550;52.230;5.194;2022-11-15T13:28:01;7.07;;;2.88;;
53646;SDS011;39550;52.230;5.194;2022-11-15T13:30:39;4.57;;;2.63;;
53646;SDS011;39550;52.230;5.194;2022-11-15T13:33:22;5.13;;;2.63;;
53646;SDS011;39550;52.230;5.194;2022-11-15T13:35:59;4.65;;;2.80;;
53646;SDS011;39550;52.230;5.194;2022-11-15T13:38:28;5.32;;;2.72;;
53646;SDS011;39550;52.230;5.194;2022-11-15T13:40:55;5.25;;;2.42;;
53646;SDS011;39550;52.230;5.194;2022-11-15T13:48:33;4.38;;;2.75;;
53646;SDS011;39550;52.230;5.194;2022-11-15T13:50:59;6.10;;;2.88;;
53646;SDS011;39550;52.230;5.194;2022-11-15T13:53:27;5.53;;;2.22;;
53646;SDS011;39550;52.230;5.194;2022-11-15T13:55:53;5.75;;;2.30;;
53646;SDS011;39550;52.230;5.194;2022-11-15T13:58:22;5.82;;;2.38;;
53646;SDS011;39550;52.230;5.194;2022-11-15T14:00:47;5.25;;;2.20;;
53646;SDS011;39550;52.230;5.194;2022-11-15T14:05:51;7.70;;;2.63;;
53646;SDS011;39550;52.230;5.194;2022-11-15T14:08:35;5.47;;;2.70;;
53646;SDS011;39550;52.230;5.194;2022-11-15T14:13:35;4.22;;;2.30;;
53646;SDS011;39550;52.230;5.194;2022-11-15T14:16:14;5.88;;;2.80;;
53646;SDS011;39550;52.230;5.194;2022-11-15T14:18:45;4.90;;;2.60;;
53646;SDS011;39550;52.230;5.194;2022-11-15T14:21:13;6.03;;;2.50;;
53646;SDS011;39550;52.230;5.194;2022-11-15T14:23:39;6.00;;;3.33;;
53646;SDS011;39550;52.230;5.194;2022-11-15T14:26:05;4.20;;;2.33;;
53646;SDS011;39550;52.230;5.194;2022-11-15T14:28:31;5.70;;;2.40;;
53646;SDS011;39550;52.230;5.194;2022-11-15T14:31:01;4.20;;;2.25;;
53646;SDS011;39550;52.230;5.194;2022-11-15T14:33:35;6.07;;;3.38;;
53646;SDS011;39550;52.230;5.194;2022-11-15T14:36:10;8.35;;;2.67;;
53646;SDS011;39550;52.230;5.194;2022-11-15T14:38:37;8.25;;;2.65;;
53646;SDS011;39550;52.230;5.194;2022-11-15T14:41:02;6.20;;;2.70;;
53646;SDS011;39550;52.230;5.194;2022-11-15T14:43:27;4.72;;;2.28;;
53646;SDS011;39550;52.230;5.194;2022-11-15T14:45:53;5.50;;;2.60;;
53646;SDS011;39550;52.230;5.194;2022-11-15T14:48:18;4.65;;;2.50;;
53646;SDS011;39550;52.230;5.194;2022-11-15T14:50:43;5.60;;;2.65;;
53646;SDS011;39550;52.230;5.194;2022-11-15T14:53:11;5.50;;;2.47;;
53646;SDS011;39550;52.230;5.194;2022-11-15T14:55:38;5.13;;;2.50;;
53646;SDS011;39550;52.230;5.194;2022-11-15T14:58:04;4.32;;;2.58;;
53646;SDS011;39550;52.230;5.194;2022-11-15T15:00:32;5.43;;;2.37;;
53646;SDS011;39550;52.230;5.194;2022-11-15T15:02:59;5.07;;;2.45;;
53646;SDS011;39550;52.230;5.194;2022-11-15T15:05:35;4.60;;;2.80;;
53646;SDS011;39550;52.230;5.194;2022-11-15T15:08:09;5.68;;;3.17;;
53646;SDS011;39550;52.230;5.194;2022-11-15T15:10:36;5.68;;;2.35;;
53646;SDS011;39550;52.230;5.194;2022-11-15T15:13:04;5.82;;;2.95;;
53646;SDS011;39550;52.230;5.194;2022-11-15T15:15:34;6.80;;;2.70;;
53646;SDS011;39550;52.230;5.194;2022-11-15T15:18:01;5.72;;;2.70;;
53646;SDS011;39550;52.230;5.194;2022-11-15T15:20:28;7.55;;;3.13;;
53646;SDS011;39550;52.230;5.194;2022-11-15T15:22:54;4.82;;;2.60;;
53646;SDS011;39550;52.230;5.194;2022-11-15T15:25:21;4.88;;;2.50;;
53646;SDS011;39550;52.230;5.194;2022-11-15T15:27:54;7.38;;;2.67;;
53646;SDS011;39550;52.230;5.194;2022-11-15T15:30:21;6.47;;;2.88;;
53646;SDS011;39550;52.230;5.194;2022-11-15T15:32:47;5.70;;;2.78;;
53646;SDS011;39550;52.230;5.194;2022-11-15T15:35:13;4.35;;;2.58;;
53646;SDS011;39550;52.230;5.194;2022-11-15T15:37:39;4.72;;;2.50;;
53646;SDS011;39550;52.230;5.194;2022-11-15T15:40:10;4.50;;;2.53;;
53646;SDS011;39550;52.230;5.194;2022-11-15T15:42:39;4.90;;;2.60;;
53646;SDS011;39550;52.230;5.194;2022-11-15T15:45:05;4.82;;;2.40;;
53646;SDS011;39550;52.230;5.194;2022-11-15T15:47:30;6.05;;;2.53;;
53646;SDS011;39550;52.230;5.194;2022-11-15T15:49:55;6.63;;;2.83;;
53646;SDS011;39550;52.230;5.194;2022-11-15T15:52:21;4.28;;;2.35;;
53646;SDS011;39550;52.230;5.194;2022-11-15T15:54:46;6.45;;;2.38;;
53646;SDS011;39550;52.230;5.194;2022-11-15T15:57:12;5.20;;;2.65;;
53646;SDS011;39550;52.230;5.194;2022-11-15T15:59:38;6.22;;;2.63;;
53646;SDS011;39550;52.230;5.194;2022-11-15T16:02:04;5.35;;;2.45;;
53646;SDS011;39550;52.230;5.194;2022-11-15T16:04:29;7.65;;;2.90;;
53646;SDS011;39550;52.230;5.194;2022-11-15T16:07:01;4.72;;;2.45;;
53646;SDS011;39550;52.230;5.194;2022-11-15T16:09:27;6.00;;;2.67;;
53646;SDS011;39550;52.230;5.194;2022-11-15T16:12:19;4.55;;;2.28;;
53646;SDS011;39550;52.230;5.194;2022-11-15T16:14:44;5.90;;;2.30;;
53646;SDS011;39550;52.230;5.194;2022-11-15T16:17:11;5.45;;;2.58;;
53646;SDS011;39550;52.230;5.194;2022-11-15T16:19:45;4.63;;;2.40;;
53646;SDS011;39550;52.230;5.194;2022-11-15T16:22:10;4.72;;;2.60;;
53646;SDS011;39550;52.230;5.194;2022-11-15T16:24:36;5.28;;;2.30;;
53646;SDS011;39550;52.230;5.194;2022-11-15T16:27:01;5.68;;;2.72;;
53646;SDS011;39550;52.230;5.194;2022-11-15T16:29:26;5.72;;;2.45;;
53646;SDS011;39550;52.230;5.194;2022-11-15T16:31:52;4.85;;;2.45;;
53646;SDS011;39550;52.230;5.194;2022-11-15T16:34:17;5.28;;;2.33;;
53646;SDS011;39550;52.230;5.194;2022-11-15T16:36:42;5.13;;;2.35;;
53646;SDS011;39550;52.230;5.194;2022-11-15T16:39:10;5.43;;;2.45;;
53646;SDS011;39550;52.230;5.194;2022-11-15T16:41:38;6.10;;;2.47;;
53646;SDS011;39550;52.230;5.194;2022-11-15T16:44:03;5.68;;;2.60;;
53646;SDS011;39550;52.230;5.194;2022-11-15T16:46:28;4.70;;;2.30;;
53646;SDS011;39550;52.230;5.194;2022-11-15T16:48:54;5.30;;;2.70;;